Time;durP1;ratioP1;P1;durP2;ratioP2;P2;SDS_P1;SDS_P2;PMS_P1;PMS_P2;Temp;Humidity;BMP_temperature;BMP_pressure;BME280_temperature;BME280_humidity;BME280_pressure;Samples;Min_cycle;Max_cycle;Signal;HPM_P1;HPM_P2
2021/10/06 00:01:45;;;;;;;22.93;12.80;;;;;;;11.66;100.00;100202.63;7398287;19;20402;-52
2021/10/06 00:04:15;;;;;;;18.20;11.97;;;;;;;11.66;100.00;100206.91;7389643;19;20415;-56
2021/10/06 00:06:44;;;;;;;18.87;11.73;;;;;;;11.70;100.00;100199.28;7397629;19;20387;-54
2021/10/06 00:09:14;;;;;;;14.83;11.27;;;;;;;11.62;100.00;100205.97;7391460;19;20960;-56
2021/10/06 00:11:46;;;;;;;16.30;10.90;;;;;;;11.61;100.00;100206.78;7398119;19;20388;-55
2021/10/06 00:14:16;;;;;;;18.70;10.10;;;;;;;11.59;100.00;100218.81;7389540;19;20490;-55
2021/10/06 00:16:46;;;;;;;15.50;10.80;;;;;;;11.59;100.00;100216.22;7401079;19;20662;-52
2021/10/06 00:19:16;;;;;;;16.10;11.63;;;;;;;11.62;100.00;100221.47;7388372;19;20407;-52
2021/10/06 00:21:46;;;;;;;18.43;11.20;;;;;;;11.70;100.00;100212.22;7396314;19;20489;-56
2021/10/06 00:24:16;;;;;;;16.27;10.40;;;;;;;11.58;100.00;100225.66;7390073;19;20419;-58
2021/10/06 00:26:48;;;;;;;17.43;10.60;;;;;;;11.53;100.00;100237.56;7404215;19;20410;-55
2021/10/06 00:29:18;;;;;;;17.33;11.00;;;;;;;11.60;100.00;100236.06;7398376;19;20407;-54
2021/10/06 00:31:47;;;;;;;16.27;10.57;;;;;;;11.65;100.00;100237.06;7404901;19;20387;-56
2021/10/06 00:34:19;;;;;;;14.40;10.67;;;;;;;11.69;100.00;100238.03;7395238;19;20415;-55
2021/10/06 00:36:48;;;;;;;16.27;10.47;;;;;;;11.67;100.00;100245.72;7403129;19;20403;-53
2021/10/06 00:39:18;;;;;;;14.57;10.10;;;;;;;11.63;100.00;100243.88;7392670;19;20498;-53
2021/10/06 00:41:50;;;;;;;16.23;10.40;;;;;;;11.63;100.00;100255.94;7403824;19;20846;-54
2021/10/06 00:44:20;;;;;;;17.17;10.97;;;;;;;11.66;100.00;100251.75;7395376;19;20748;-51
2021/10/06 00:46:51;;;;;;;19.10;10.60;;;;;;;11.64;100.00;100250.78;7403648;19;20384;-55
2021/10/06 00:49:20;;;;;;;13.13;10.23;;;;;;;11.67;100.00;100255.19;7396740;19;20431;-55
2021/10/06 00:51:50;;;;;;;16.40;10.17;;;;;;;11.63;100.00;100254.22;7404100;19;20459;-56
2021/10/06 00:54:19;;;;;;;14.50;10.23;;;;;;;11.69;100.00;100262.16;7393588;19;20482;-57
2021/10/06 00:56:51;;;;;;;16.63;10.53;;;;;;;11.67;100.00;100266.41;7401939;19;20415;-56
2021/10/06 00:59:21;;;;;;;15.80;9.57;;;;;;;11.63;100.00;100261.97;7395136;19;20435;-53
2021/10/06 01:01:50;;;;;;;13.17;10.03;;;;;;;11.66;100.00;100262.06;7403857;19;20395;-56
2021/10/06 01:04:20;;;;;;;17.70;11.43;;;;;;;11.70;100.00;100256.13;7394651;19;20419;-55
2021/10/06 01:06:50;;;;;;;20.70;10.00;;;;;;;11.74;100.00;100258.00;7402621;19;20414;-50
2021/10/06 01:09:19;;;;;;;13.67;9.00;;;;;;;11.75;100.00;100254.56;7397365;19;20486;-55
2021/10/06 01:11:51;;;;;;;18.97;10.50;;;;;;;11.73;100.00;100251.09;7406667;19;20394;-55
2021/10/06 01:14:21;;;;;;;14.37;9.83;;;;;;;11.75;100.00;100253.72;7395258;19;20503;-56
2021/10/06 01:16:50;;;;;;;14.50;10.57;;;;;;;11.75;100.00;100256.31;7403128;19;20913;-53
2021/10/06 01:19:22;;;;;;;13.90;9.70;;;;;;;11.73;100.00;100261.41;7395013;19;20503;-56
2021/10/06 01:22:08;;;;;;;13.60;10.17;;;;;;;11.78;100.00;100269.28;7396882;19;20745;-55
2021/10/06 01:24:37;;;;;;;13.80;9.77;;;;;;;11.75;100.00;100275.25;7391030;19;20429;-55
2021/10/06 01:27:07;;;;;;;16.77;11.17;;;;;;;11.77;100.00;100269.25;7399469;19;20387;-56
2021/10/06 01:29:36;;;;;;;13.57;9.87;;;;;;;11.75;100.00;100280.41;7393302;19;20709;-57
2021/10/06 01:32:13;;;;;;;17.50;10.93;;;;;;;11.69;100.00;100285.41;7399982;19;20400;-57
2021/10/06 01:34:43;;;;;;;15.57;8.60;;;;;;;11.73;100.00;100282.09;7396477;19;20414;-54
2021/10/06 01:37:15;;;;;;;22.80;10.60;;;;;;;11.73;100.00;100287.25;7398079;19;20794;-51
2021/10/06 01:39:44;;;;;;;12.70;8.07;;;;;;;11.73;100.00;100276.03;7397236;19;20893;-56
2021/10/06 01:42:14;;;;;;;12.73;9.73;;;;;;;11.74;100.00;100281.25;7399863;19;20403;-55
2021/10/06 01:44:43;;;;;;;15.90;9.80;;;;;;;11.68;100.00;100288.81;7396564;19;20835;-56
2021/10/06 01:47:19;;;;;;;16.10;9.83;;;;;;;11.63;100.00;100290.38;7403502;19;20542;-54
2021/10/06 01:49:49;;;;;;;18.37;10.90;;;;;;;11.67;100.00;100287.06;7401585;19;20447;-56
2021/10/06 01:52:23;;;;;;;16.60;9.97;;;;;;;11.67;100.00;100288.78;7392673;19;20395;-53
2021/10/06 01:54:53;;;;;;;13.80;9.63;;;;;;;11.63;100.00;100307.63;7399803;19;20500;-57
2021/10/06 01:57:23;;;;;;;18.20;9.23;;;;;;;11.51;100.00;100300.34;7395439;19;20391;-56
2021/10/06 01:59:53;;;;;;;13.80;9.57;;;;;;;11.56;100.00;100299.69;7400399;19;20471;-54
2021/10/06 02:02:22;;;;;;;14.80;9.30;;;;;;;11.55;100.00;100305.69;7395800;19;20384;-56
2021/10/06 02:04:51;;;;;;;14.30;9.63;;;;;;;11.49;100.00;100305.50;7399512;19;20471;-57
2021/10/06 02:07:23;;;;;;;14.13;9.60;;;;;;;11.47;100.00;100310.59;7394949;19;20722;-55
2021/10/06 02:09:53;;;;;;;15.73;9.77;;;;;;;11.48;100.00;100309.78;7403523;19;20459;-55
2021/10/06 02:12:22;;;;;;;16.20;9.80;;;;;;;11.51;100.00;100305.53;7395411;19;20860;-55
2021/10/06 02:14:52;;;;;;;18.53;9.97;;;;;;;11.45;100.00;100316.56;7399334;19;20446;-53
2021/10/06 02:17:21;;;;;;;12.83;9.40;;;;;;;11.44;100.00;100309.63;7394712;19;20447;-56
2021/10/06 02:19:51;;;;;;;18.87;10.43;;;;;;;11.43;100.00;100313.91;7401750;19;20396;-55
2021/10/06 02:22:20;;;;;;;13.50;10.07;;;;;;;11.40;100.00;100313.84;7395008;19;20398;-55
2021/10/06 02:24:52;;;;;;;19.27;10.73;;;;;;;11.36;100.00;100314.56;7399618;19;20697;-56
2021/10/06 02:27:22;;;;;;;15.90;9.90;;;;;;;11.37;100.00;100311.13;7393958;19;20388;-50
2021/10/06 02:29:51;;;;;;;16.43;9.07;;;;;;;11.28;100.00;100313.44;7401151;19;20396;-55
2021/10/06 02:32:21;;;;;;;16.87;9.80;;;;;;;11.24;100.00;100316.75;7394549;19;20392;-49
2021/10/06 02:34:50;;;;;;;19.37;11.47;;;;;;;11.29;100.00;100310.03;7398719;19;20430;-56
2021/10/06 02:37:20;;;;;;;14.37;10.23;;;;;;;11.19;100.00;100329.53;7393905;19;20451;-57
2021/10/06 02:39:49;;;;;;;15.63;10.60;;;;;;;11.23;100.00;100335.66;7399593;19;20392;-54
2021/10/06 02:42:21;;;;;;;19.03;10.93;;;;;;;11.25;100.00;100334.88;7394283;19;20451;-53
2021/10/06 02:44:51;;;;;;;23.07;10.50;;;;;;;11.25;100.00;100334.88;7400260;19;20434;-57
2021/10/06 02:47:20;;;;;;;17.57;10.50;;;;;;;11.26;100.00;100325.41;7392502;19;20820;-55
2021/10/06 02:49:50;;;;;;;16.23;10.87;;;;;;;11.29;100.00;100334.13;7400463;19;20681;-55
2021/10/06 02:52:19;;;;;;;19.90;11.20;;;;;;;11.38;100.00;100336.13;7394126;19;20464;-56
2021/10/06 02:54:49;;;;;;;14.87;9.97;;;;;;;11.32;100.00;100341.09;7398120;19;20419;-53
2021/10/06 02:57:18;;;;;;;16.80;10.27;;;;;;;11.35;100.00;100330.88;7393160;19;20414;-53
2021/10/06 02:59:50;;;;;;;17.00;10.47;;;;;;;11.41;100.00;100345.69;7399123;19;20376;-56
2021/10/06 03:02:20;;;;;;;15.13;10.30;;;;;;;11.39;100.00;100337.88;7394317;19;20376;-55
2021/10/06 03:04:49;;;;;;;25.40;10.57;;;;;;;11.44;100.00;100346.66;7398054;19;20772;-51
2021/10/06 03:07:18;;;;;;;14.50;9.63;;;;;;;11.47;100.00;100333.84;7392682;19;20471;-56
2021/10/06 03:09:50;;;;;;;14.60;9.23;;;;;;;11.45;100.00;100345.81;7399897;19;20390;-53
2021/10/06 03:12:20;;;;;;;16.17;10.00;;;;;;;11.48;100.00;100343.34;7393415;19;20388;-55
2021/10/06 03:14:52;;;;;;;15.07;9.90;;;;;;;11.52;100.00;100354.66;7397492;19;20491;-54
2021/10/06 03:17:21;;;;;;;13.50;9.90;;;;;;;11.50;100.00;100345.09;7396726;19;20400;-55
2021/10/06 03:19:51;;;;;;;17.87;8.90;;;;;;;11.50;100.00;100352.84;7398787;19;20392;-56
2021/10/06 03:22:20;;;;;;;13.57;7.93;;;;;;;11.45;100.00;100355.31;7393229;19;20650;-55
2021/10/06 03:24:50;;;;;;;19.57;10.47;;;;;;;11.53;100.00;100363.31;7397296;19;20442;-53
2021/10/06 03:27:19;;;;;;;12.93;8.60;;;;;;;11.48;100.00;100364.03;7392072;19;20400;-55
2021/10/06 03:29:51;;;;;;;12.87;9.20;;;;;;;11.56;100.00;100371.13;7399234;19;20444;-54
2021/10/06 03:32:21;;;;;;;17.10;9.53;;;;;;;11.56;100.00;100369.44;7392915;19;20380;-55
2021/10/06 03:34:50;;;;;;;17.43;9.50;;;;;;;11.59;100.00;100369.53;7396896;19;20482;-56
2021/10/06 03:37:19;;;;;;;14.50;9.73;;;;;;;11.55;100.00;100371.97;7396279;19;20749;-54
2021/10/06 03:39:49;;;;;;;21.43;9.50;;;;;;;11.52;100.00;100379.59;7398311;19;20390;-53
2021/10/06 03:42:18;;;;;;;14.27;9.50;;;;;;;11.44;100.00;100381.97;7392625;19;20877;-57
2021/10/06 03:44:48;;;;;;;15.03;9.10;;;;;;;11.50;100.00;100381.28;7396782;19;20453;-56
2021/10/06 03:47:20;;;;;;;15.97;10.10;;;;;;;11.56;100.00;100384.06;7391838;19;20391;-56
2021/10/06 03:49:49;;;;;;;13.10;8.90;;;;;;;11.54;100.00;100388.31;7398785;19;20447;-51
2021/10/06 03:52:19;;;;;;;14.63;7.83;;;;;;;11.40;100.00;100391.31;7392299;19;20654;-55
2021/10/06 03:54:48;;;;;;;14.00;9.00;;;;;;;11.36;100.00;100402.38;7396265;19;20882;-54
2021/10/06 03:57:18;;;;;;;15.10;8.37;;;;;;;11.35;100.00;100408.38;7393379;19;20904;-54
2021/10/06 03:59:47;;;;;;;13.63;8.40;;;;;;;11.34;100.00;100414.38;7401964;19;20390;-56
2021/10/06 04:02:19;;;;;;;15.20;9.33;;;;;;;11.26;100.00;100405.47;7399282;19;20749;-56
2021/10/06 04:04:50;;;;;;;14.60;8.47;;;;;;;11.28;100.00;100406.41;7405818;19;20745;-53
2021/10/06 04:07:19;;;;;;;16.30;8.87;;;;;;;11.28;100.00;100411.59;7398943;19;20451;-54
2021/10/06 04:09:49;;;;;;;10.53;7.53;;;;;;;11.19;100.00;100413.00;7405659;19;20387;-54
2021/10/06 04:12:18;;;;;;;14.03;7.80;;;;;;;11.23;100.00;100410.53;7399658;19;20860;-54
2021/10/06 04:14:47;;;;;;;13.43;8.20;;;;;;;11.18;100.00;100416.41;7402839;19;20489;-55
2021/10/06 04:17:20;;;;;;;15.90;8.40;;;;;;;11.17;100.00;100421.53;7398608;19;20471;-58
2021/10/06 04:19:49;;;;;;;17.97;8.53;;;;;;;11.11;100.00;100422.22;7404980;19;20660;-51
2021/10/06 04:22:18;;;;;;;17.63;8.77;;;;;;;11.12;100.00;100421.38;7398333;19;20443;-50
2021/10/06 04:24:48;;;;;;;16.23;7.83;;;;;;;11.03;100.00;100431.41;7402587;19;20423;-53
2021/10/06 04:27:18;;;;;;;17.80;8.80;;;;;;;11.00;100.00;100426.13;7397874;19;20905;-53
2021/10/06 04:29:47;;;;;;;15.60;8.00;;;;;;;10.94;100.00;100435.41;7405288;19;20392;-56
2021/10/06 04:32:20;;;;;;;15.93;8.20;;;;;;;10.93;100.00;100440.53;7398685;19;20705;-58
2021/10/06 04:34:49;;;;;;;20.17;9.17;;;;;;;10.89;100.00;100444.72;7402130;19;20494;-55
2021/10/06 04:37:19;;;;;;;17.97;8.57;;;;;;;10.84;100.00;100445.34;7397779;19;20391;-54
2021/10/06 04:39:48;;;;;;;14.73;9.03;;;;;;;10.83;100.00;100446.19;7404388;19;20721;-56
2021/10/06 04:42:18;;;;;;;14.90;8.83;;;;;;;10.83;100.00;100448.75;7398547;19;20396;-54
2021/10/06 04:44:47;;;;;;;20.43;9.00;;;;;;;10.66;100.00;100447.31;7401898;19;20408;-53
2021/10/06 04:47:19;;;;;;;13.77;8.03;;;;;;;10.66;100.00;100454.19;7401372;19;20397;-56
2021/10/06 04:49:49;;;;;;;13.67;8.33;;;;;;;10.71;100.00;100457.81;7404617;19;20860;-53
2021/10/06 04:52:19;;;;;;;15.20;8.37;;;;;;;10.63;100.00;100467.88;7397820;19;20898;-57
2021/10/06 04:54:52;;;;;;;15.43;7.77;;;;;;;10.60;100.00;100467.75;7401431;19;20445;-54
2021/10/06 04:57:22;;;;;;;16.10;8.37;;;;;;;10.65;100.00;100476.53;7397160;19;20391;-56
2021/10/06 04:59:52;;;;;;;15.30;7.97;;;;;;;10.57;100.00;100477.97;7403932;19;20387;-56
2021/10/06 05:02:24;;;;;;;11.70;7.40;;;;;;;10.60;100.00;100480.63;7397663;19;20456;-55
2021/10/06 05:04:53;;;;;;;20.30;8.77;;;;;;;10.65;100.00;100486.84;7401200;19;20415;-53
2021/10/06 05:07:23;;;;;;;17.13;8.47;;;;;;;10.66;100.00;100483.44;7397313;19;20444;-55
2021/10/06 05:09:52;;;;;;;15.97;8.60;;;;;;;10.63;100.00;100491.09;7404961;19;20468;-56
2021/10/06 05:12:22;;;;;;;22.77;9.00;;;;;;;10.66;100.00;100488.59;7397321;19;20393;-53
2021/10/06 05:14:51;;;;;;;16.23;7.60;;;;;;;10.64;100.00;100490.25;7401007;19;20432;-58
2021/10/06 05:17:20;;;;;;;15.97;8.53;;;;;;;10.56;100.00;100491.66;7396621;19;20410;-54
2021/10/06 05:19:52;;;;;;;18.17;7.80;;;;;;;10.57;100.00;100498.59;7403522;19;20477;-56
2021/10/06 05:22:22;;;;;;;17.83;9.20;;;;;;;10.59;100.00;100496.06;7395107;19;20392;-54
2021/10/06 05:24:51;;;;;;;13.53;7.70;;;;;;;10.51;100.00;100503.53;7400704;19;20877;-51
2021/10/06 05:27:21;;;;;;;11.40;7.10;;;;;;;10.54;100.00;100503.63;7396199;19;20475;-56
2021/10/06 05:29:50;;;;;;;19.20;8.80;;;;;;;10.52;100.00;100510.44;7403059;19;20395;-55
2021/10/06 05:32:20;;;;;;;23.13;9.70;;;;;;;10.58;100.00;100510.69;7396716;19;20455;-51
2021/10/06 05:34:49;;;;;;;17.23;8.77;;;;;;;10.53;100.00;100509.63;7404817;19;20428;-54
2021/10/06 05:37:21;;;;;;;13.60;8.30;;;;;;;10.55;100.00;100522.59;7396034;19;20476;-54
2021/10/06 05:39:51;;;;;;;17.40;9.20;;;;;;;10.63;100.00;100521.16;7402838;19;20867;-55
2021/10/06 05:42:20;;;;;;;18.13;9.70;;;;;;;10.57;100.00;100526.97;7381153;19;20392;-56
2021/10/06 05:44:50;;;;;;;18.77;8.40;;;;;;;10.56;100.00;100532.06;7400153;19;20483;-53
2021/10/06 05:47:19;;;;;;;11.73;8.73;;;;;;;10.64;100.00;100528.97;7395404;19;20394;-55
2021/10/06 05:49:50;;;;;;;19.77;8.70;;;;;;;10.67;100.00;100531.66;7402495;19;20490;-54
2021/10/06 05:52:22;;;;;;;13.80;9.40;;;;;;;10.71;100.00;100536.94;7396265;19;20456;-56
2021/10/06 05:54:52;;;;;;;24.37;10.07;;;;;;;10.70;100.00;100537.72;7399724;19;20476;-53
2021/10/06 05:57:21;;;;;;;15.23;9.60;;;;;;;10.65;100.00;100541.03;7395874;19;20837;-52
2021/10/06 05:59:52;;;;;;;18.87;9.57;;;;;;;10.64;100.00;100541.88;7403225;19;20471;-55
2021/10/06 06:02:22;;;;;;;13.70;9.30;;;;;;;10.66;100.00;100549.63;7396303;19;20395;-53
2021/10/06 06:04:51;;;;;;;14.20;8.67;;;;;;;10.60;100.00;100555.47;7403235;19;20511;-52
2021/10/06 06:07:23;;;;;;;17.20;10.00;;;;;;;10.63;100.00;100547.84;7396537;19;20491;-54
2021/10/06 06:09:52;;;;;;;16.43;10.37;;;;;;;10.64;100.00;100557.34;7403321;19;20396;-49
2021/10/06 06:12:22;;;;;;;20.20;9.87;;;;;;;10.68;100.00;100558.34;7395668;19;21661;-50
2021/10/06 06:14:51;;;;;;;19.07;10.30;;;;;;;10.67;100.00;100567.78;7401734;19;20499;-52
2021/10/06 06:17:21;;;;;;;21.10;9.30;;;;;;;10.67;100.00;100567.78;7394234;19;20460;-54
2021/10/06 06:19:50;;;;;;;25.83;11.47;;;;;;;10.63;100.00;100567.59;7401801;19;20384;-56
2021/10/06 06:22:22;;;;;;;23.17;10.57;;;;;;;10.64;100.00;100571.94;7392213;19;20447;-54
2021/10/06 06:24:52;;;;;;;14.97;9.50;;;;;;;10.62;100.00;100582.19;7398979;19;20423;-55
2021/10/06 06:27:21;;;;;;;22.03;11.20;;;;;;;10.84;100.00;100583.03;7394190;19;20392;-56
2021/10/06 06:29:51;;;;;;;22.77;11.87;;;;;;;10.82;100.00;100581.22;7400914;19;20447;-54
2021/10/06 06:32:20;;;;;;;13.00;9.20;;;;;;;10.71;100.00;100583.38;7394397;19;20384;-55
2021/10/06 06:34:50;;;;;;;17.23;9.70;;;;;;;10.73;100.00;100586.88;7398851;19;20416;-56
2021/10/06 06:37:22;;;;;;;15.70;9.43;;;;;;;10.77;100.00;100583.63;7393800;19;20680;-56
2021/10/06 06:39:52;;;;;;;16.60;9.40;;;;;;;10.76;100.00;100592.16;7403458;19;20388;-57
2021/10/06 06:42:21;;;;;;;13.73;9.23;;;;;;;10.77;100.00;100593.94;7393349;19;20724;-55
2021/10/06 06:44:51;;;;;;;19.13;9.17;;;;;;;10.78;100.00;100598.28;7398505;19;20431;-52
2021/10/06 06:47:20;;;;;;;12.33;8.67;;;;;;;10.89;100.00;100599.56;7393156;19;20387;-56
2021/10/06 06:49:50;;;;;;;12.93;8.40;;;;;;;10.82;100.00;100601.84;7400659;19;20467;-56
2021/10/06 06:52:19;;;;;;;16.60;8.93;;;;;;;10.84;100.00;100603.69;7392302;19;20392;-56
2021/10/06 06:54:51;;;;;;;11.53;7.83;;;;;;;10.94;100.00;100602.31;7401913;19;20428;-54
2021/10/06 06:57:21;;;;;;;11.80;7.80;;;;;;;10.93;100.00;100601.44;7391568;19;20486;-55
2021/10/06 06:59:50;;;;;;;14.90;8.57;;;;;;;11.05;100.00;100607.88;7401756;19;20463;-56
2021/10/06 07:02:20;;;;;;;18.53;9.20;;;;;;;10.99;100.00;100610.22;7395369;19;20406;-53
2021/10/06 07:04:49;;;;;;;20.77;9.40;;;;;;;11.03;100.00;100606.94;7398151;19;20419;-54
2021/10/06 07:07:18;;;;;;;10.33;7.37;;;;;;;11.18;100.00;100612.66;7392082;19;20921;-56
2021/10/06 07:09:51;;;;;;;13.40;7.30;;;;;;;11.21;100.00;100615.38;7402304;19;20474;-52
2021/10/06 07:12:22;;;;;;;14.87;9.10;;;;;;;11.33;100.00;100617.53;7392620;19;20386;-52
2021/10/06 07:14:53;;;;;;;9.10;6.40;;;;;;;11.20;100.00;100621.38;7400914;19;20423;-53
2021/10/06 07:17:23;;;;;;;14.60;7.43;;;;;;;11.33;100.00;100625.28;7391957;19;20451;-55
2021/10/06 07:19:52;;;;;;;12.60;6.50;;;;;;;11.39;100.00;100631.50;7399580;19;20392;-54
2021/10/06 07:22:22;;;;;;;13.77;7.53;;;;;;;11.51;100.00;100636.22;7394482;19;20689;-55
2021/10/06 07:24:55;;;;;;;12.90;8.17;;;;;;;11.39;100.00;100641.81;7397553;19;20475;-55
2021/10/06 07:27:24;;;;;;;11.00;6.20;;;;;;;11.38;100.00;100642.66;7391316;19;20413;-53
2021/10/06 07:29:54;;;;;;;16.60;7.30;;;;;;;11.48;100.00;100647.31;7401495;19;20854;-56
2021/10/06 07:32:23;;;;;;;15.50;7.20;;;;;;;11.56;100.00;100645.91;7392473;19;20459;-56
2021/10/06 07:34:53;;;;;;;11.23;6.27;;;;;;;11.53;100.00;100655.25;7397003;19;20491;-52
2021/10/06 07:37:22;;;;;;;11.53;6.87;;;;;;;11.64;100.00;100656.50;7391598;19;20469;-53
2021/10/06 07:39:54;;;;;;;10.17;6.73;;;;;;;11.54;100.00;100662.19;7398471;19;20429;-52
2021/10/06 07:42:24;;;;;;;11.63;6.10;;;;;;;11.62;100.00;100663.31;7390394;19;20400;-56
2021/10/06 07:44:57;;;;;;;27.73;7.20;;;;;;;11.85;100.00;100663.28;7395779;19;20511;-55
2021/10/06 07:47:26;;;;;;;18.00;8.00;;;;;;;11.90;100.00;100672.06;7376523;19;20494;-53
2021/10/06 07:49:56;;;;;;;15.77;9.30;;;;;;;12.06;100.00;100677.78;7394068;19;20490;-55
2021/10/06 07:52:25;;;;;;;12.03;6.83;;;;;;;12.08;100.00;100669.25;7390358;19;20447;-50
2021/10/06 07:54:57;;;;;;;13.47;6.47;;;;;;;12.30;100.00;100677.72;7394953;19;20795;-52
2021/10/06 07:57:27;;;;;;;7.17;5.30;;;;;;;12.08;100.00;100678.72;7389354;19;20641;-50
2021/10/06 07:59:56;;;;;;;9.77;5.43;;;;;;;11.98;100.00;100674.91;7397369;19;20392;-54
2021/10/06 08:02:26;;;;;;;16.40;5.10;;;;;;;12.20;100.00;100676.53;7389037;19;20398;-49
2021/10/06 08:04:55;;;;;;;10.50;4.30;;;;;;;12.41;100.00;100672.94;7398966;19;20846;-50
2021/10/06 08:07:25;;;;;;;8.30;5.13;;;;;;;12.40;100.00;100674.63;7389340;19;20456;-54
2021/10/06 08:09:57;;;;;;;11.33;6.00;;;;;;;12.42;100.00;100677.28;7396521;19;20406;-54
2021/10/06 08:12:27;;;;;;;15.97;5.37;;;;;;;12.28;100.00;100684.56;7389494;19;20396;-52
2021/10/06 08:14:56;;;;;;;9.93;5.83;;;;;;;12.35;100.00;100694.28;7398566;19;20398;-56
2021/10/06 08:17:26;;;;;;;8.50;3.80;;;;;;;12.42;100.00;100693.66;7389722;19;20396;-57
2021/10/06 08:19:55;;;;;;;11.13;5.07;;;;;;;12.54;100.00;100682.84;7396672;19;20455;-54
2021/10/06 08:22:25;;;;;;;7.17;4.30;;;;;;;12.60;100.00;100689.06;7390048;19;20842;-51
2021/10/06 08:24:54;;;;;;;11.20;4.50;;;;;;;12.56;100.00;100698.41;7394288;19;20706;-54
2021/10/06 08:27:26;;;;;;;8.37;4.10;;;;;;;12.54;100.00;100689.72;7387720;19;20450;-56
2021/10/06 08:29:56;;;;;;;14.50;3.83;;;;;;;12.62;100.00;100693.44;7396791;19;20406;-54
2021/10/06 08:32:25;;;;;;;8.57;4.27;;;;;;;12.65;100.00;100700.41;7390744;19;20398;-56
2021/10/06 08:34:55;;;;;;;8.40;4.20;;;;;;;12.75;100.00;100707.66;7394650;19;20422;-56
2021/10/06 08:37:24;;;;;;;6.23;4.00;;;;;;;12.76;100.00;100709.41;7388899;19;20723;-56
2021/10/06 08:39:54;;;;;;;10.07;4.10;;;;;;;12.76;100.00;100719.78;7396838;19;20463;-56
2021/10/06 08:42:23;;;;;;;8.90;3.73;;;;;;;12.54;100.00;100725.97;7389870;19;20400;-54
2021/10/06 08:44:55;;;;;;;13.33;4.60;;;;;;;12.78;100.00;100719.84;7395416;19;20487;-54
2021/10/06 08:47:25;;;;;;;8.33;3.77;;;;;;;12.72;100.00;100727.41;7401034;19;20671;-54
2021/10/06 08:49:55;;;;;;;5.63;3.27;;;;;;;12.50;100.00;100737.91;7403417;19;20459;-51
2021/10/06 08:52:24;;;;;;;9.23;3.33;;;;;;;12.53;100.00;100740.63;7397451;19;20834;-54
2021/10/06 08:54:54;;;;;;;11.30;3.70;;;;;;;12.77;100.00;100731.88;7401269;19;20734;-54
2021/10/06 08:57:23;;;;;;;9.73;4.00;;;;;;;12.82;100.00;100735.50;7396889;19;20407;-53
2021/10/06 08:59:52;;;;;;;11.40;3.63;;;;;;;12.73;100.00;100726.56;7404407;19;20415;-56
2021/10/06 09:02:27;;;;;;;6.03;3.63;;;;;;;12.74;100.00;100742.16;7393589;19;20855;-51
2021/10/06 09:04:58;;;;;;;6.00;3.50;;;;;;;12.77;100.00;100747.41;7407438;19;20467;-52
2021/10/06 09:07:28;;;;;;;8.83;3.70;;;;;;;12.59;100.00;100744.22;7396772;19;20402;-55
2021/10/06 09:09:57;;;;;;;6.30;3.60;;;;;;;12.72;100.00;100754.16;7403501;19;20463;-55
2021/10/06 09:12:27;;;;;;;5.07;3.30;;;;;;;12.77;100.00;100750.00;7397323;19;20854;-54
2021/10/06 09:14:59;;;;;;;11.33;4.23;;;;;;;12.82;100.00;100761.41;7403656;19;20396;-53
2021/10/06 09:17:31;;;;;;;5.30;3.40;;;;;;;12.89;100.00;100756.41;7396270;19;20380;-52
2021/10/06 09:20:01;;;;;;;13.83;3.20;;;;;;;12.68;100.00;100770.44;7403781;19;20376;-53
2021/10/06 09:22:32;;;;;;;13.63;2.77;;;;;;;12.60;100.00;100774.47;7397077;19;20399;-55
2021/10/06 09:25:03;;;;;;;6.47;3.30;;;;;;;12.70;100.00;100773.94;7403519;19;20379;-53
2021/10/06 09:27:34;;;;;;;6.90;3.30;;;;;;;12.66;100.00;100777.22;7395720;19;20384;-54
2021/10/06 09:30:09;;;;;;;8.07;3.23;;;;;;;12.64;100.00;100781.50;7403509;19;20465;-55
2021/10/06 09:32:42;;;;;;;4.97;2.93;;;;;;;12.74;100.00;100783.56;7396003;19;20407;-51
2021/10/06 09:35:14;;;;;;;4.50;2.80;;;;;;;12.86;100.00;100784.81;7403240;19;20387;-49
2021/10/06 09:37:46;;;;;;;6.27;3.17;;;;;;;12.87;100.00;100787.44;7395209;19;20748;-51
2021/10/06 09:40:17;;;;;;;4.30;2.53;;;;;;;12.91;100.00;100801.34;7406616;19;20473;-54
2021/10/06 09:42:49;;;;;;;9.23;3.50;;;;;;;13.07;100.00;100788.09;7395238;19;20771;-52
2021/10/06 09:45:25;;;;;;;5.07;3.23;;;;;;;13.37;100.00;100797.66;7403646;19;20428;-54
2021/10/06 09:48:10;;;;;;;5.33;3.00;;;;;;;13.60;100.00;100794.03;7396883;19;20454;-49
2021/10/06 09:50:43;;;;;;;4.60;3.07;;;;;;;13.96;100.00;100805.44;7403556;19;20489;-56
2021/10/06 09:53:17;;;;;;;10.23;5.17;;;;;;;13.70;100.00;100805.56;7396455;19;20928;-57
2021/10/06 09:56:05;;;;;;;9.37;4.77;;;;;;;13.50;100.00;100814.47;7400848;19;20845;-55
2021/10/06 09:58:35;;;;;;;5.40;2.00;;;;;;;13.74;100.00;100817.78;7395001;19;20486;-58
2021/10/06 10:01:05;;;;;;;9.67;5.00;;;;;;;13.63;100.00;100820.03;7402316;19;20380;-57
2021/10/06 10:03:38;;;;;;;10.03;2.83;;;;;;;13.59;100.00;100823.41;7393368;19;20913;-57
2021/10/06 10:06:07;;;;;;;10.47;4.23;;;;;;;13.82;100.00;100828.38;7406062;19;20398;-57
2021/10/06 10:08:37;;;;;;;6.67;2.67;;;;;;;14.23;100.00;100822.59;7395907;19;20415;-56
2021/10/06 10:11:06;;;;;;;5.70;2.07;;;;;;;14.58;100.00;100820.09;7402104;19;20400;-54
2021/10/06 10:13:36;;;;;;;5.73;2.50;;;;;;;14.15;100.00;100841.44;7393452;19;20451;-54
2021/10/06 10:16:06;;;;;;;6.83;3.70;;;;;;;14.07;100.00;100837.75;7401319;19;20384;-55
2021/10/06 10:18:38;;;;;;;7.73;2.17;;;;;;;13.75;100.00;100837.69;7397290;19;20896;-52
2021/10/06 10:21:08;;;;;;;4.87;2.00;;;;;;;13.66;100.00;100843.47;7401725;19;20396;-51
2021/10/06 10:23:38;;;;;;;8.90;2.67;;;;;;;13.53;100.00;100846.53;7395084;19;20447;-54
2021/10/06 10:26:08;;;;;;;21.40;5.50;;;;;;;13.49;100.00;100845.56;7401047;19;20403;-55
2021/10/06 10:28:43;;;;;;;10.00;3.10;;;;;;;13.51;100.00;100838.69;7394757;19;20431;-53
2021/10/06 10:31:15;;;;;;;6.37;2.20;;;;;;;13.57;100.00;100853.56;7404794;19;20471;-53
2021/10/06 10:33:48;;;;;;;5.33;2.60;;;;;;;13.73;100.00;100847.13;7393054;19;20423;-54
2021/10/06 10:36:48;;;;;;;2.53;1.80;;;;;;;13.60;100.00;100851.94;7401353;19;20884;-56
2021/10/06 10:39:59;;;;;;;7.63;3.07;;;;;;;13.51;100.00;100856.84;7394198;19;20415;-54
2021/10/06 10:43:00;;;;;;;4.90;2.23;;;;;;;13.53;100.00;100864.69;7393848;19;20645;-53
2021/10/06 10:45:40;;;;;;;6.27;3.13;;;;;;;13.59;100.00;100864.88;7400265;19;20387;-54
2021/10/06 10:48:11;;;;;;;3.80;1.60;;;;;;;13.47;100.00;100867.94;7394303;19;20415;-53
2021/10/06 10:51:08;;;;;;;3.50;2.00;;;;;;;13.37;100.00;100872.81;7400694;19;20466;-52
2021/10/06 10:54:00;;;;;;;11.87;2.30;;;;;;;13.39;100.00;100882.34;7391986;19;20431;-54
2021/10/06 10:56:41;;;;;;;6.37;2.50;;;;;;;13.45;100.00;100887.72;7405101;19;20483;-51
2021/10/06 10:59:12;;;;;;;7.00;1.53;;;;;;;13.59;100.00;100889.06;7394035;19;20403;-54
2021/10/06 11:01:46;;;;;;;4.80;1.90;;;;;;;13.59;100.00;100890.78;7403664;19;20459;-51
2021/10/06 11:04:23;;;;;;;8.10;2.10;;;;;;;13.51;100.00;100895.72;7392580;19;20458;-54
2021/10/06 11:06:57;;;;;;;9.93;2.40;;;;;;;13.60;100.00;100893.41;7399802;19;20399;-52
2021/10/06 11:09:54;;;;;;;4.73;2.20;;;;;;;13.57;100.00;100901.09;7392463;19;20482;-55
2021/10/06 11:12:35;;;;;;;5.60;2.30;;;;;;;13.64;100.00;100900.47;7391477;19;20416;-53
2021/10/06 11:15:25;;;;;;;3.37;1.77;;;;;;;13.75;100.00;100895.59;7400100;19;20395;-53
2021/10/06 11:18:17;;;;;;;3.77;2.30;;;;;;;13.69;100.00;100902.31;7392934;19;20419;-56
2021/10/06 11:20:50;;;;;;;5.07;2.47;;;;;;;13.69;100.00;100902.31;7399979;19;20671;-49
2021/10/06 11:23:57;;;;;;;4.73;1.53;;;;;;;13.64;100.00;100905.66;7392348;19;20483;-53
2021/10/06 11:26:38;;;;;;;3.10;1.77;;;;;;;13.63;100.00;100916.84;7399194;19;20415;-52
2021/10/06 11:29:09;;;;;;;7.90;2.87;;;;;;;13.77;100.00;100921.59;7392867;19;20415;-51